Time;durP1;ratioP1;P1;durP2;ratioP2;P2;SDS_P1;SDS_P2;PMS_P1;PMS_P2;Temp;Humidity;BMP_temperature;BMP_pressure;BME280_temperature;BME280_humidity;BME280_pressure;Samples;Min_cycle;Max_cycle;Signal;HPM_P1;HPM_P2
2021/03/01 00:00:39;;;;;;;56.45;13.95;;;4.00;91.70;;;;;;5011705;28;20053;-47
2021/03/01 00:03:05;;;;;;;54.22;14.30;;;4.00;91.70;;;;;;5024712;28;20088;-46
2021/03/01 00:05:34;;;;;;;47.25;13.30;;;4.00;91.90;;;;;;4998105;28;20056;-50
2021/03/01 00:08:01;;;;;;;51.08;13.43;;;4.00;91.80;;;;;;5030479;28;20081;-50
2021/03/01 00:10:27;;;;;;;42.28;14.13;;;4.00;91.90;;;;;;5013248;28;20041;-49
2021/03/01 00:12:53;;;;;;;35.92;13.77;;;4.00;91.80;;;;;;5015820;28;20045;-47
2021/03/01 00:15:22;;;;;;;47.63;13.90;;;4.00;91.70;;;;;;5001986;28;20046;-47
2021/03/01 00:17:48;;;;;;;74.50;16.45;;;4.00;91.70;;;;;;5013640;28;20048;-49
2021/03/01 00:20:15;;;;;;;60.65;16.48;;;4.00;91.90;;;;;;5021052;28;20053;-48
2021/03/01 00:22:42;;;;;;;79.22;17.15;;;4.00;91.90;;;;;;5032421;28;20060;-48
2021/03/01 00:25:08;;;;;;;83.57;19.70;;;4.00;92.00;;;;;;5025721;28;20038;-49
2021/03/01 00:27:34;;;;;;;87.55;17.65;;;3.90;92.00;;;;;;5024952;28;20389;-50
2021/03/01 00:30:00;;;;;;;65.10;18.67;;;3.90;92.10;;;;;;5022500;28;20060;-49
2021/03/01 00:32:44;;;;;;;62.70;17.88;;;4.00;92.10;;;;;;4988748;28;20576;-46
2021/03/01 00:35:11;;;;;;;58.03;17.05;;;4.00;92.20;;;;;;5014531;28;20103;-54
2021/03/01 00:37:37;;;;;;;53.13;16.50;;;4.00;92.20;;;;;;5017912;28;20084;-48
2021/03/01 00:40:10;;;;;;;46.00;14.88;;;4.00;92.20;;;;;;5019312;28;20068;-51
2021/03/01 00:42:36;;;;;;;59.28;15.00;;;4.00;92.20;;;;;;5006298;28;20090;-47
2021/03/01 00:45:22;;;;;;;47.28;13.30;;;3.90;92.10;;;;;;5022537;28;20041;-51
2021/03/01 00:47:47;;;;;;;47.78;14.10;;;3.90;92.10;;;;;;5023024;28;20136;-51
2021/03/01 00:50:14;;;;;;;52.97;14.82;;;3.80;92.10;;;;;;4994635;28;20140;-50
2021/03/01 00:52:41;;;;;;;99.72;17.77;;;3.90;92.20;;;;;;5024333;28;20119;-48
2021/03/01 00:55:08;;;;;;;85.25;16.88;;;3.80;92.20;;;;;;5023709;28;20549;-48
2021/03/01 00:57:33;;;;;;;53.17;16.40;;;3.80;92.40;;;;;;5025128;28;20077;-50
2021/03/01 01:00:09;;;;;;;71.15;17.48;;;3.80;92.30;;;;;;5029956;28;20049;-51
2021/03/01 01:02:35;;;;;;;69.85;17.13;;;3.80;92.40;;;;;;5002904;28;20045;-46
2021/03/01 01:05:01;;;;;;;114.78;18.85;;;3.80;92.30;;;;;;5025221;28;20127;-48
2021/03/01 01:07:49;;;;;;;112.03;18.95;;;3.60;92.40;;;;;;5026012;28;20495;-49
2021/03/01 01:10:15;;;;;;;109.78;17.60;;;3.70;92.30;;;;;;5017882;28;20054;-49
2021/03/01 01:12:41;;;;;;;99.03;16.92;;;3.60;92.40;;;;;;5009070;28;20137;-49
2021/03/01 01:15:09;;;;;;;50.33;16.42;;;3.60;92.50;;;;;;4999078;28;20140;-52
2021/03/01 01:17:35;;;;;;;91.72;17.73;;;3.70;92.50;;;;;;5006473;28;20061;-49
2021/03/01 01:20:01;;;;;;;86.22;17.90;;;3.70;92.30;;;;;;5016964;28;20377;-52
2021/03/01 01:22:27;;;;;;;91.70;17.98;;;3.60;92.20;;;;;;5009820;28;20103;-51
2021/03/01 01:24:59;;;;;;;124.28;21.38;;;3.50;92.40;;;;;;5007030;28;20481;-52
2021/03/01 01:27:34;;;;;;;89.60;16.92;;;3.60;92.20;;;;;;5008107;28;20089;-46
2021/03/01 01:29:59;;;;;;;88.70;15.20;;;3.60;92.50;;;;;;5023793;28;20678;-45
2021/03/01 01:32:25;;;;;;;66.65;14.00;;;3.50;92.20;;;;;;5004558;28;20041;-50
2021/03/01 01:34:51;;;;;;;113.65;14.88;;;3.50;92.10;;;;;;5020442;28;20080;-47
2021/03/01 01:37:23;;;;;;;94.43;14.18;;;3.50;92.10;;;;;;5007350;28;20053;-49
2021/03/01 01:39:49;;;;;;;45.97;9.02;;;3.40;92.10;;;;;;5017644;28;20064;-51
2021/03/01 01:42:18;;;;;;;68.75;13.85;;;3.30;92.20;;;;;;5024223;28;20033;-47
2021/03/01 01:44:43;;;;;;;98.55;15.30;;;3.20;92.40;;;;;;5001481;28;20061;-49
2021/03/01 01:47:09;;;;;;;124.35;19.17;;;3.10;92.30;;;;;;4987449;28;20092;-48
2021/03/01 01:49:35;;;;;;;142.50;19.05;;;3.10;92.60;;;;;;5006535;28;20366;-51
2021/03/01 01:52:01;;;;;;;85.80;14.52;;;3.00;92.60;;;;;;5010585;28;20060;-46
2021/03/01 01:54:26;;;;;;;109.03;16.65;;;3.00;92.60;;;;;;5022044;28;20061;-49
2021/03/01 01:56:52;;;;;;;86.03;13.63;;;3.00;92.80;;;;;;4997163;28;20136;-47
2021/03/01 01:59:18;;;;;;;100.97;15.60;;;3.00;92.70;;;;;;4996015;28;20049;-51
2021/03/01 02:01:45;;;;;;;69.38;10.27;;;3.10;92.70;;;;;;5006930;28;20045;-47
2021/03/01 02:04:46;;;;;;;95.07;13.45;;;3.00;92.70;;;;;;5011247;28;20609;-48
2021/03/01 02:07:45;;;;;;;52.03;10.20;;;3.00;92.80;;;;;;4971501;28;20054;-48
2021/03/01 02:10:50;;;;;;;96.93;14.20;;;3.10;92.60;;;;;;4980971;28;20418;-46
2021/03/01 02:13:35;;;;;;;76.15;13.95;;;3.00;92.70;;;;;;4924177;29;20195;-51
2021/03/01 02:16:05;;;;;;;86.80;14.75;;;3.00;92.80;;;;;;4916430;29;20064;-45
2021/03/01 02:18:33;;;;;;;78.85;13.02;;;3.00;92.80;;;;;;4924987;29;20656;-50
2021/03/01 02:21:11;;;;;;;70.25;13.48;;;3.00;92.80;;;;;;4908145;29;20130;-48
2021/03/01 02:23:38;;;;;;;91.07;13.65;;;3.10;92.90;;;;;;4924092;29;20063;-48
2021/03/01 02:26:41;;;;;;;104.78;15.40;;;3.10;92.70;;;;;;4927302;29;20048;-54
2021/03/01 02:29:10;;;;;;;110.57;14.55;;;3.10;92.70;;;;;;4909314;29;20135;-52
2021/03/01 02:31:40;;;;;;;78.00;13.98;;;3.20;92.70;;;;;;4904744;29;20071;-48
2021/03/01 02:34:07;;;;;;;78.78;14.85;;;3.20;92.90;;;;;;4910366;29;20178;-51
2021/03/01 02:36:41;;;;;;;89.80;16.90;;;3.30;92.80;;;;;;4888767;29;20050;-48
2021/03/01 02:39:07;;;;;;;50.75;13.93;;;3.30;93.00;;;;;;4907553;29;20461;-53
2021/03/01 02:41:35;;;;;;;61.45;15.45;;;3.30;92.90;;;;;;4904356;29;20056;-52
2021/03/01 02:44:01;;;;;;;44.42;15.23;;;3.40;92.90;;;;;;4912347;29;20052;-50
2021/03/01 02:46:28;;;;;;;41.45;12.15;;;3.40;93.00;;;;;;4932628;28;20163;-54
2021/03/01 02:48:55;;;;;;;50.80;13.30;;;3.40;92.80;;;;;;4982446;28;20099;-51
2021/03/01 02:51:22;;;;;;;32.33;12.98;;;3.50;92.80;;;;;;4994093;28;20221;-49
2021/03/01 02:53:49;;;;;;;30.88;14.13;;;3.50;92.90;;;;;;4991158;28;20081;-50
2021/03/01 02:56:16;;;;;;;30.17;13.35;;;3.60;92.60;;;;;;4983047;28;20046;-50
2021/03/01 02:58:43;;;;;;;53.58;13.95;;;3.60;92.70;;;;;;4982822;28;20054;-53
2021/03/01 03:01:10;;;;;;;41.88;14.75;;;3.60;92.70;;;;;;4988118;28;20046;-48
2021/03/01 03:03:44;;;;;;;35.22;14.10;;;3.70;92.60;;;;;;5009378;28;20193;-50
2021/03/01 03:06:12;;;;;;;44.67;14.95;;;3.70;92.60;;;;;;5008282;28;20140;-47
2021/03/01 03:08:40;;;;;;;45.67;14.02;;;3.70;92.60;;;;;;4993439;28;20058;-51
2021/03/01 03:11:06;;;;;;;47.22;16.52;;;3.70;92.60;;;;;;5025563;28;20685;-50
2021/03/01 03:13:34;;;;;;;38.70;15.68;;;3.80;92.70;;;;;;5026017;28;20489;-49
2021/03/01 03:16:01;;;;;;;50.78;15.90;;;3.80;92.80;;;;;;5007391;28;20059;-49
2021/03/01 03:18:29;;;;;;;48.17;15.45;;;3.80;92.70;;;;;;5031466;28;20045;-50
2021/03/01 03:20:58;;;;;;;36.33;16.40;;;3.80;92.70;;;;;;5023645;28;20048;-46
2021/03/01 03:23:23;;;;;;;35.80;16.55;;;3.80;92.80;;;;;;5025811;28;20053;-51
2021/03/01 03:25:49;;;;;;;39.10;17.13;;;3.90;92.70;;;;;;5015695;28;20906;-52
2021/03/01 03:28:15;;;;;;;28.70;16.50;;;3.90;92.90;;;;;;5013233;28;20111;-47
2021/03/01 03:30:42;;;;;;;44.72;17.60;;;4.00;92.70;;;;;;5013005;28;20447;-50
2021/03/01 03:33:08;;;;;;;33.03;16.35;;;4.00;92.70;;;;;;5008997;28;20054;-50
2021/03/01 03:35:35;;;;;;;38.05;16.58;;;4.00;92.70;;;;;;4985862;22;20407;-45
2021/03/01 03:38:07;;;;;;;37.80;18.70;;;4.00;92.70;;;;;;5090025;28;20458;-46
2021/03/01 03:40:34;;;;;;;37.53;17.13;;;4.00;92.60;;;;;;5089909;28;20388;-50
2021/03/01 03:43:02;;;;;;;32.72;15.50;;;4.10;92.70;;;;;;5097758;28;20086;-47
2021/03/01 03:45:28;;;;;;;36.35;17.33;;;4.00;92.70;;;;;;5092589;28;20514;-52
2021/03/01 03:47:58;;;;;;;31.27;16.33;;;4.10;92.70;;;;;;5094730;28;20072;-47
2021/03/01 03:50:26;;;;;;;37.40;19.15;;;4.10;92.50;;;;;;5086914;28;20052;-47
2021/03/01 03:52:58;;;;;;;35.35;16.85;;;4.10;92.70;;;;;;5090452;28;20449;-51
2021/03/01 03:55:26;;;;;;;41.30;17.85;;;4.20;92.70;;;;;;5064542;28;20109;-49
2021/03/01 03:58:00;;;;;;;31.60;14.55;;;4.20;92.70;;;;;;5091756;28;20036;-49
2021/03/01 04:00:32;;;;;;;32.67;16.73;;;4.20;92.60;;;;;;5086836;28;20056;-46
2021/03/01 04:03:04;;;;;;;37.00;17.45;;;4.20;92.50;;;;;;5060826;28;20044;-47
2021/03/01 04:05:31;;;;;;;38.10;16.83;;;4.20;92.60;;;;;;5086078;28;20048;-47
2021/03/01 04:07:58;;;;;;;36.22;16.40;;;4.20;92.80;;;;;;5067721;28;20047;-49
2021/03/01 04:10:29;;;;;;;36.22;16.73;;;4.20;92.60;;;;;;5090907;28;20056;-49
2021/03/01 04:12:56;;;;;;;33.25;16.58;;;4.20;92.80;;;;;;5084635;28;20621;-48
2021/03/01 04:15:25;;;;;;;34.80;15.55;;;4.30;92.80;;;;;;5086496;28;20419;-47
2021/03/01 04:17:51;;;;;;;34.50;15.20;;;4.20;92.90;;;;;;5086236;28;20089;-48
2021/03/01 04:20:22;;;;;;;33.83;14.93;;;4.30;92.80;;;;;;5086357;28;20071;-47
2021/03/01 04:22:49;;;;;;;34.30;16.05;;;4.30;92.70;;;;;;5085000;28;20043;-49
2021/03/01 04:25:17;;;;;;;32.47;15.25;;;4.30;92.70;;;;;;5107904;28;20044;-52
2021/03/01 04:27:43;;;;;;;30.48;14.10;;;4.30;92.60;;;;;;5101750;28;20121;-49
2021/03/01 04:30:11;;;;;;;32.28;15.13;;;4.30;92.60;;;;;;5085970;28;20054;-49
2021/03/01 04:32:39;;;;;;;32.55;15.80;;;4.40;92.50;;;;;;5087446;28;20036;-48
2021/03/01 04:35:09;;;;;;;29.13;13.35;;;4.40;92.70;;;;;;5094959;28;20047;-47
2021/03/01 04:37:50;;;;;;;25.08;13.50;;;4.40;92.60;;;;;;5076176;28;20197;-47
2021/03/01 04:40:17;;;;;;;27.80;13.35;;;4.40;92.70;;;;;;5096692;28;20043;-47
2021/03/01 04:42:46;;;;;;;26.15;11.95;;;4.30;92.70;;;;;;5086040;28;20045;-49
2021/03/01 04:45:17;;;;;;;28.23;12.73;;;4.30;92.60;;;;;;5087014;28;20052;-44
2021/03/01 04:47:47;;;;;;;30.20;14.52;;;4.30;92.60;;;;;;5085932;28;20108;-46
2021/03/01 04:50:14;;;;;;;28.70;15.00;;;4.30;92.60;;;;;;5104321;28;20422;-49
2021/03/01 04:52:42;;;;;;;35.67;16.00;;;4.30;92.80;;;;;;5095557;28;20044;-47
2021/03/01 04:55:09;;;;;;;28.58;14.40;;;4.30;92.80;;;;;;5091755;28;20514;-48
2021/03/01 04:57:36;;;;;;;32.22;15.18;;;4.30;92.80;;;;;;5049540;28;20064;-49
2021/03/01 08:37:41;;;;;;;30.95;16.45;;;5.60;90.10;;;;;;5053897;28;20052;-43
2021/03/01 08:40:08;;;;;;;13.82;6.60;;;5.70;90.20;;;;;;5056214;28;20091;-43
2021/03/01 08:42:47;;;;;;;12.63;5.35;;;5.70;90.00;;;;;;5058977;28;20488;-49
2021/03/01 08:45:40;;;;;;;10.40;5.50;;;5.90;89.50;;;;;;5059592;28;20568;-45
2021/03/01 08:48:15;;;;;;;;;;;5.90;88.90;;;;;;5052572;28;20040;-44
2021/03/01 08:50:41;;;;;;;12.43;6.05;;;5.90;88.10;;;;;;5086920;28;20004;-42
2021/03/01 08:53:08;;;;;;;11.13;4.65;;;6.00;88.30;;;;;;5068831;28;20076;-45
2021/03/01 08:55:36;;;;;;;8.68;4.45;;;6.00;87.60;;;;;;5064083;28;20052;-43
2021/03/01 08:58:04;;;;;;;11.90;6.07;;;6.00;87.40;;;;;;5064261;28;20084;-44
2021/03/01 09:00:32;;;;;;;12.18;6.00;;;6.10;87.60;;;;;;5065109;28;20543;-41
2021/03/01 09:03:17;;;;;;;11.07;6.50;;;6.10;87.00;;;;;;5064494;28;20131;-43
2021/03/01 09:05:46;;;;;;;42.13;27.88;;;6.20;86.30;;;;;;5064390;28;20055;-43
2021/03/01 09:08:12;;;;;;;29.95;18.67;;;6.10;86.80;;;;;;5065808;28;20048;-45
2021/03/01 09:10:45;;;;;;;14.13;5.35;;;6.10;87.00;;;;;;5079511;28;20064;-42
2021/03/01 09:13:20;;;;;;;9.77;5.25;;;6.20;86.70;;;;;;5053549;28;20492;-43
2021/03/01 09:15:48;;;;;;;8.88;5.20;;;6.40;86.20;;;;;;5069582;28;20059;-44
2021/03/01 09:18:15;;;;;;;10.75;5.25;;;6.50;86.70;;;;;;5035574;28;20159;-42
2021/03/01 09:20:43;;;;;;;9.90;4.88;;;6.60;86.10;;;;;;5058852;28;20094;-42
2021/03/01 09:23:09;;;;;;;12.98;5.93;;;6.70;85.50;;;;;;5057544;28;20774;-43
2021/03/01 09:25:36;;;;;;;9.95;5.22;;;6.80;85.40;;;;;;5046950;28;20044;-44
2021/03/01 09:28:02;;;;;;;8.93;4.75;;;6.70;84.60;;;;;;5040112;28;20045;-44
2021/03/01 09:30:28;;;;;;;31.17;17.88;;;6.70;84.50;;;;;;5073047;28;20056;-43
2021/03/01 09:33:34;;;;;;;12.40;5.32;;;6.70;84.70;;;;;;5044763;28;20052;-46
2021/03/01 09:36:01;;;;;;;10.80;5.45;;;6.80;83.90;;;;;;5038011;28;20061;-41
2021/03/01 09:38:27;;;;;;;21.83;12.23;;;6.80;83.50;;;;;;5044707;28;20048;-41
2021/03/01 09:41:01;;;;;;;14.35;6.05;;;7.10;84.00;;;;;;5053746;28;20151;-42
2021/03/01 09:43:38;;;;;;;12.02;6.57;;;7.20;83.20;;;;;;5047672;28;20082;-44
2021/03/01 09:46:05;;;;;;;9.98;5.40;;;7.30;82.40;;;;;;5059890;28;20079;-42
2021/03/01 09:48:53;;;;;;;12.13;6.50;;;7.30;82.50;;;;;;5057265;28;20047;-42
2021/03/01 09:51:21;;;;;;;20.65;11.48;;;7.50;81.60;;;;;;5043857;28;20051;-41
2021/03/01 09:53:47;;;;;;;11.05;4.57;;;7.70;81.70;;;;;;5043559;28;20040;-43
2021/03/01 09:56:13;;;;;;;10.38;4.63;;;8.10;80.10;;;;;;5045729;28;20118;-40
2021/03/01 09:58:41;;;;;;;8.98;4.75;;;8.60;78.80;;;;;;5041607;28;20426;-42
2021/03/01 10:01:45;;;;;;;9.95;5.18;;;8.80;77.20;;;;;;5050746;28;20036;-44
2021/03/01 10:04:22;;;;;;;12.68;4.25;;;8.80;74.50;;;;;;5058324;28;20044;-41
2021/03/01 10:06:48;;;;;;;11.77;5.93;;;8.80;76.40;;;;;;5048631;28;20060;-40
2021/03/01 10:09:14;;;;;;;11.80;6.28;;;8.40;75.70;;;;;;5052773;28;20469;-41
2021/03/01 10:11:40;;;;;;;10.18;4.57;;;8.10;76.10;;;;;;5040855;28;20566;-40
2021/03/01 10:14:15;;;;;;;11.38;5.93;;;8.00;76.80;;;;;;5052383;28;20045;-42
2021/03/01 10:16:42;;;;;;;14.07;8.07;;;8.40;76.50;;;;;;5058690;28;20106;-46
2021/03/01 10:19:13;;;;;;;19.45;10.98;;;8.60;75.90;;;;;;5061982;28;20139;-40
2021/03/01 10:21:39;;;;;;;16.00;8.88;;;8.60;75.50;;;;;;5054674;28;20117;-40
2021/03/01 10:24:07;;;;;;;11.35;5.95;;;9.50;75.50;;;;;;5055215;28;20045;-41
2021/03/01 10:26:48;;;;;;;11.55;7.60;;;10.90;73.10;;;;;;5060355;28;20674;-41
2021/03/01 10:29:14;;;;;;;9.37;5.13;;;12.10;67.80;;;;;;5059573;28;20066;-41
2021/03/01 10:31:40;;;;;;;14.23;7.88;;;12.30;66.60;;;;;;5060330;28;20061;-41
2021/03/01 10:42:13;;;;;;;11.68;7.40;;;11.30;66.40;;;;;;5060694;28;20143;-42
2021/03/01 10:44:45;;;;;;;9.02;6.07;;;13.20;63.00;;;;;;5062074;28;20583;-41
2021/03/01 10:47:16;;;;;;;9.70;5.22;;;13.10;62.70;;;;;;5042045;28;20049;-41
2021/03/01 10:49:44;;;;;;;8.35;4.75;;;13.40;59.20;;;;;;5052988;28;20041;-43
2021/03/01 10:52:11;;;;;;;8.82;5.20;;;12.90;62.90;;;;;;5060577;28;20071;-42
2021/03/01 10:54:38;;;;;;;8.10;5.47;;;12.50;60.20;;;;;;5051691;28;20081;-41
2021/03/01 10:57:05;;;;;;;9.60;6.38;;;12.40;62.90;;;;;;5052263;28;20693;-41
2021/03/01 10:59:31;;;;;;;9.90;6.10;;;13.20;62.60;;;;;;5059060;28;20690;-41
2021/03/01 11:01:57;;;;;;;8.85;5.35;;;13.90;58.70;;;;;;5052280;28;20051;-40
2021/03/01 11:04:23;;;;;;;9.95;5.55;;;14.40;57.50;;;;;;5064030;28;20616;-42
2021/03/01 11:06:50;;;;;;;8.82;4.75;;;14.40;56.70;;;;;;5059555;28;20155;-42
2021/03/01 11:09:17;;;;;;;7.57;4.63;;;14.40;57.20;;;;;;5044801;28;20064;-40
2021/03/01 11:11:44;;;;;;;8.75;5.40;;;13.80;55.90;;;;;;5064085;28;20078;-41
2021/03/01 11:14:12;;;;;;;10.25;4.90;;;13.20;56.40;;;;;;5074909;28;20571;-40
2021/03/01 11:16:38;;;;;;;9.57;5.38;;;13.40;56.90;;;;;;5046143;28;20059;-39
2021/03/01 11:19:07;;;;;;;8.02;5.18;;;13.60;57.60;;;;;;5065320;28;20048;-40
2021/03/01 11:21:34;;;;;;;8.18;5.20;;;14.80;56.80;;;;;;5060482;28;20037;-41
2021/03/01 11:24:00;;;;;;;8.95;5.32;;;15.20;54.80;;;;;;5047879;28;20459;-42
2021/03/01 11:26:26;;;;;;;8.80;5.80;;;15.80;52.80;;;;;;5027843;28;20068;-42
2021/03/01 11:28:53;;;;;;;8.10;4.55;;;16.40;51.10;;;;;;5066947;28;20052;-40
2021/03/01 11:31:19;;;;;;;9.00;6.00;;;16.80;49.60;;;;;;5050046;28;20043;-42
2021/03/01 11:33:46;;;;;;;19.60;13.90;;;16.10;50.60;;;;;;5061409;28;20044;-51
2021/03/01 11:36:12;;;;;;;11.63;7.50;;;16.80;50.80;;;;;;5076195;28;20044;-46
2021/03/01 11:38:38;;;;;;;13.52;8.35;;;17.00;48.20;;;;;;5059123;28;20052;-48
2021/03/01 11:41:05;;;;;;;10.15;6.43;;;16.70;49.10;;;;;;5060246;28;20147;-51
2021/03/01 11:43:32;;;;;;;8.60;5.85;;;16.30;50.30;;;;;;5074627;28;20044;-48
2021/03/01 11:45:58;;;;;;;8.43;5.45;;;16.10;50.90;;;;;;5074440;28;20040;-50
2021/03/01 11:48:24;;;;;;;9.25;4.70;;;16.40;49.40;;;;;;5048196;28;20128;-50
2021/03/01 11:50:51;;;;;;;9.35;4.85;;;16.80;49.70;;;;;;5059063;28;20143;-53
2021/03/01 11:53:17;;;;;;;8.82;4.70;;;16.90;47.90;;;;;;5059920;28;20067;-52
2021/03/01 11:55:45;;;;;;;7.53;4.85;;;17.20;47.90;;;;;;5059424;28;20484;-54
2021/03/01 11:58:11;;;;;;;9.65;4.93;;;17.40;47.10;;;;;;5054584;28;20226;-51
2021/03/01 12:00:40;;;;;;;8.35;4.57;;;17.60;47.20;;;;;;5063512;28;20135;-49
2021/03/01 12:03:07;;;;;;;7.50;5.07;;;17.80;46.50;;;;;;5016189;28;20052;-49
2021/03/01 12:05:35;;;;;;;8.75;4.97;;;17.60;45.20;;;;;;5071935;28;20510;-51
2021/03/01 12:08:01;;;;;;;7.82;5.15;;;17.50;45.50;;;;;;5056957;28;20135;-49
2021/03/01 12:10:26;;;;;;;6.72;4.45;;;17.80;44.10;;;;;;5062873;28;20051;-51
2021/03/01 12:12:52;;;;;;;7.57;4.50;;;18.00;45.80;;;;;;5051198;28;20071;-48
2021/03/01 12:15:37;;;;;;;8.50;5.15;;;18.10;44.40;;;;;;5058254;28;20036;-48
2021/03/01 12:18:02;;;;;;;9.23;4.70;;;18.00;43.80;;;;;;5055985;28;20137;-50
2021/03/01 12:20:29;;;;;;;9.25;5.35;;;17.90;44.80;;;;;;5054474;28;20156;-49
2021/03/01 12:22:55;;;;;;;12.98;9.48;;;18.00;43.00;;;;;;5063305;28;20068;-47
2021/03/01 12:25:21;;;;;;;18.23;14.48;;;18.20;43.00;;;;;;5053038;28;20053;-51
2021/03/01 12:27:47;;;;;;;27.83;24.20;;;18.10;43.30;;;;;;5058638;28;20033;-51
2021/03/01 12:30:13;;;;;;;10.50;5.97;;;18.50;43.50;;;;;;5063549;28;20043;-50
2021/03/01 12:32:39;;;;;;;23.52;20.05;;;18.80;42.70;;;;;;5050886;28;20294;-53
2021/03/01 12:35:05;;;;;;;12.60;10.60;;;18.60;42.80;;;;;;5000262;28;20757;-49
2021/03/01 12:37:31;;;;;;;11.43;8.35;;;18.70;42.70;;;;;;5066304;28;20055;-49
2021/03/01 12:39:57;;;;;;;12.32;8.15;;;18.50;42.80;;;;;;5058766;28;20059;-49
2021/03/01 12:46:04;;;;;;;10.18;6.82;;;19.00;39.80;;;;;;5058717;28;20557;-49
2021/03/01 12:48:30;;;;;;;9.95;7.82;;;18.80;41.30;;;;;;5048189;28;20044;-53
2021/03/01 12:50:56;;;;;;;8.93;5.93;;;18.70;41.50;;;;;;5061714;28;20135;-53
2021/03/01 12:53:22;;;;;;;8.63;5.53;;;18.90;41.10;;;;;;5080840;28;20594;-53
2021/03/01 12:55:48;;;;;;;8.30;5.90;;;19.20;40.00;;;;;;5078474;28;20052;-52
2021/03/01 12:58:14;;;;;;;8.40;5.18;;;19.40;40.50;;;;;;5059315;28;21110;-52
2021/03/01 13:00:39;;;;;;;8.25;5.65;;;19.10;40.00;;;;;;5060029;28;20101;-48
2021/03/01 13:03:05;;;;;;;9.13;4.95;;;19.10;40.60;;;;;;5080988;28;20044;-53
2021/03/01 13:05:31;;;;;;;8.35;5.32;;;19.30;40.40;;;;;;5057126;28;20055;-51
2021/03/01 13:07:57;;;;;;;7.22;5.55;;;19.50;40.00;;;;;;5077940;28;20123;-52
2021/03/01 13:10:23;;;;;;;8.95;4.97;;;19.40;40.00;;;;;;5078596;28;20048;-48
2021/03/01 13:12:48;;;;;;;8.35;5.38;;;19.20;40.50;;;;;;5080743;28;20441;-52
2021/03/01 13:15:14;;;;;;;6.80;4.03;;;19.50;40.70;;;;;;5080360;28;20871;-52
2021/03/01 13:17:40;;;;;;;7.15;5.07;;;19.70;39.60;;;;;;5079977;28;20050;-54
2021/03/01 13:20:07;;;;;;;7.22;4.25;;;19.40;39.60;;;;;;5047172;28;20137;-52
2021/03/01 13:22:33;;;;;;;9.65;5.35;;;19.60;40.30;;;;;;5061013;28;20048;-52
2021/03/01 13:24:59;;;;;;;7.25;4.30;;;19.60;39.20;;;;;;5077932;28;20071;-47
2021/03/01 13:27:24;;;;;;;7.25;5.13;;;19.50;39.90;;;;;;5081145;28;20179;-47
2021/03/01 13:29:50;;;;;;;9.35;4.50;;;19.70;39.70;;;;;;5028575;28;20063;-50
2021/03/01 13:32:16;;;;;;;6.15;4.80;;;19.50;39.20;;;;;;5071535;28;20059;-50
2021/03/01 13:34:42;;;;;;;9.30;6.70;;;19.50;39.40;;;;;;5077462;28;20048;-50
2021/03/01 13:37:08;;;;;;;6.70;4.70;;;19.80;38.50;;;;;;5050128;28;20094;-51
2021/03/01 13:39:34;;;;;;;9.25;5.10;;;19.90;38.50;;;;;;5075053;28;20048;-45
2021/03/01 13:42:01;;;;;;;7.97;4.65;;;19.80;38.80;;;;;;5078604;28;20884;-43
2021/03/01 13:44:27;;;;;;;107.88;96.90;;;19.20;39.90;;;;;;5058842;28;20055;-44
2021/03/01 13:46:52;;;;;;;44.22;39.55;;;19.20;39.70;;;;;;5058768;28;20036;-50
2021/03/01 13:49:18;;;;;;;22.27;17.58;;;19.30;40.00;;;;;;5076968;28;20701;-51
2021/03/01 13:51:44;;;;;;;13.40;10.25;;;19.40;40.00;;;;;;5044310;28;20091;-43
2021/03/01 13:54:12;;;;;;;8.65;7.47;;;19.30;39.50;;;;;;5044150;28;20577;-45
2021/03/01 13:56:38;;;;;;;11.00;7.07;;;19.80;38.60;;;;;;5079123;28;20149;-49
2021/03/01 13:59:04;;;;;;;13.10;10.55;;;19.80;38.50;;;;;;5075003;28;20056;-49
2021/03/01 14:01:31;;;;;;;9.00;5.22;;;19.70;38.30;;;;;;5074898;28;20086;-48
2021/03/01 14:03:57;;;;;;;10.55;6.80;;;19.50;37.90;;;;;;5078893;28;20040;-49
2021/03/01 14:06:23;;;;;;;39.30;32.00;;;19.10;39.20;;;;;;5076497;28;20113;-52
2021/03/01 14:08:49;;;;;;;12.60;9.52;;;18.90;39.80;;;;;;5067723;28;20090;-51
2021/03/01 14:11:21;;;;;;;43.92;39.28;;;19.40;39.50;;;;;;5070184;28;20044;-56
2021/03/01 14:14:05;;;;;;;26.75;21.90;;;19.20;38.60;;;;;;5059539;28;20047;-52
2021/03/01 14:16:31;;;;;;;19.30;16.83;;;19.10;39.30;;;;;;5078180;28;20032;-53
2021/03/01 14:19:21;;;;;;;10.95;7.32;;;19.20;39.60;;;;;;5079251;28;20760;-50
2021/03/01 14:21:47;;;;;;;8.00;6.10;;;19.20;38.80;;;;;;5077839;28;20044;-53
2021/03/01 14:24:13;;;;;;;10.68;7.65;;;19.30;39.20;;;;;;5076816;28;20047;-49
2021/03/01 14:26:39;;;;;;;32.47;28.95;;;18.90;39.30;;;;;;5077987;28;20852;-42
2021/03/01 14:29:10;;;;;;;14.90;12.18;;;18.90;40.00;;;;;;5080188;28;20071;-46
2021/03/01 14:31:36;;;;;;;27.63;22.88;;;19.10;39.20;;;;;;5080809;28;20090;-45
2021/03/01 14:34:05;;;;;;;20.88;17.85;;;18.90;39.70;;;;;;5077435;28;20093;-43
2021/03/01 14:36:31;;;;;;;9.73;7.15;;;18.90;39.10;;;;;;5079008;28;20605;-43
2021/03/01 14:38:57;;;;;;;18.58;14.88;;;19.00;39.30;;;;;;5077788;28;20040;-42
2021/03/01 14:41:22;;;;;;;18.30;14.20;;;18.80;39.40;;;;;;5078820;28;20044;-45
2021/03/01 14:43:48;;;;;;;8.85;6.55;;;18.30;39.70;;;;;;5049721;28;20743;-45
2021/03/01 14:46:14;;;;;;;11.00;8.43;;;18.20;40.20;;;;;;5059468;28;20478;-45
2021/03/01 14:48:41;;;;;;;9.65;7.13;;;18.20;40.50;;;;;;5076844;28;20056;-45
2021/03/01 14:51:07;;;;;;;42.35;37.67;;;18.50;39.70;;;;;;5077522;28;20058;-46
2021/03/01 14:53:32;;;;;;;12.70;7.38;;;18.40;40.60;;;;;;5061494;28;20052;-43
2021/03/01 14:55:59;;;;;;;16.63;12.77;;;18.40;39.90;;;;;;5079986;28;20135;-45
2021/03/01 14:58:25;;;;;;;14.63;11.00;;;18.40;40.70;;;;;;5071337;28;20049;-48
2021/03/01 15:00:51;;;;;;;14.48;11.02;;;17.90;40.80;;;;;;5057671;28;20602;-45
2021/03/01 15:03:18;;;;;;;21.15;17.15;;;17.70;41.50;;;;;;5078633;28;20047;-48
2021/03/01 15:05:48;;;;;;;18.25;13.85;;;17.90;41.40;;;;;;5081074;28;20052;-43
2021/03/01 15:08:14;;;;;;;14.57;10.98;;;17.40;42.00;;;;;;5080942;28;20373;-46
2021/03/01 15:10:40;;;;;;;15.35;9.65;;;17.40;42.30;;;;;;5083412;28;20492;-44
2021/03/01 15:13:06;;;;;;;15.05;11.60;;;17.40;42.10;;;;;;5081925;28;20044;-43
2021/03/01 15:15:32;;;;;;;13.77;9.63;;;17.30;42.30;;;;;;5071572;28;20578;-47
2021/03/01 15:17:58;;;;;;;14.77;10.13;;;17.30;42.90;;;;;;5079115;28;20044;-47
2021/03/01 15:20:24;;;;;;;15.85;11.07;;;17.30;42.00;;;;;;5080436;28;20832;-46
2021/03/01 15:23:15;;;;;;;48.00;40.35;;;17.20;42.30;;;;;;5078970;28;20039;-47
2021/03/01 15:25:41;;;;;;;22.33;17.77;;;17.30;42.90;;;;;;5078982;28;20052;-47
2021/03/01 15:28:07;;;;;;;19.88;14.65;;;16.90;42.90;;;;;;5079491;28;20042;-45
2021/03/01 15:30:33;;;;;;;15.63;11.23;;;16.60;43.60;;;;;;5080366;28;20048;-48
2021/03/01 15:32:58;;;;;;;25.20;20.02;;;16.80;43.80;;;;;;5053191;28;20052;-45
2021/03/01 15:35:24;;;;;;;19.25;13.35;;;16.70;43.60;;;;;;5067819;28;20056;-48
2021/03/01 15:37:50;;;;;;;25.15;18.95;;;16.80;43.60;;;;;;5079280;28;20056;-47
2021/03/01 15:40:16;;;;;;;25.80;18.67;;;16.60;44.00;;;;;;5080058;28;20056;-47
2021/03/01 15:42:42;;;;;;;19.63;15.10;;;16.60;44.30;;;;;;5080466;28;20040;-48
2021/03/01 15:45:08;;;;;;;16.02;11.90;;;16.30;44.80;;;;;;5062341;28;20583;-50
2021/03/01 15:47:33;;;;;;;15.60;12.35;;;16.00;45.00;;;;;;5070278;28;20044;-46
2021/03/01 15:49:59;;;;;;;17.70;13.68;;;16.00;45.50;;;;;;5062217;28;20054;-49
2021/03/01 15:52:25;;;;;;;17.50;11.95;;;15.90;45.80;;;;;;5080864;28;20590;-44
2021/03/01 15:54:51;;;;;;;23.60;13.38;;;15.70;45.90;;;;;;5079682;28;20044;-45
2021/03/01 15:57:17;;;;;;;18.83;13.10;;;15.50;46.60;;;;;;5061163;28;20074;-45
2021/03/01 15:59:43;;;;;;;20.77;13.32;;;15.50;46.30;;;;;;5059568;28;20491;-50
2021/03/01 16:02:09;;;;;;;19.50;14.60;;;15.30;47.10;;;;;;5058781;28;20517;-46
2021/03/01 16:04:35;;;;;;;19.90;13.18;;;14.80;47.70;;;;;;5053449;28;20143;-43
2021/03/01 16:07:01;;;;;;;19.08;13.13;;;14.00;49.90;;;;;;5071771;28;20581;-44
2021/03/01 16:09:27;;;;;;;20.35;14.15;;;13.30;51.50;;;;;;5061950;28;20063;-45
2021/03/01 16:11:52;;;;;;;18.20;12.18;;;12.70;53.80;;;;;;5081438;28;20164;-46
2021/03/01 16:14:18;;;;;;;18.17;13.07;;;12.20;54.30;;;;;;5078901;28;20044;-46
2021/03/01 16:16:44;;;;;;;21.10;13.73;;;11.90;56.10;;;;;;5060639;28;20873;-44
2021/03/01 16:19:10;;;;;;;22.52;15.05;;;11.50;57.40;;;;;;5077775;28;20052;-46
2021/03/01 16:21:36;;;;;;;21.58;13.57;;;11.20;59.30;;;;;;5061685;28;20048;-46
2021/03/01 16:24:02;;;;;;;22.30;16.27;;;11.10;60.20;;;;;;5075399;28;20066;-47
2021/03/01 16:26:28;;;;;;;26.23;18.08;;;11.00;59.50;;;;;;5062766;28;20495;-45
2021/03/01 16:28:54;;;;;;;25.27;17.77;;;10.80;60.60;;;;;;5071923;28;20125;-47
2021/03/01 16:31:26;;;;;;;28.65;21.20;;;10.70;61.40;;;;;;5068744;28;20040;-45
2021/03/01 16:34:00;;;;;;;24.88;19.13;;;10.60;61.50;;;;;;5061155;28;20055;-46